sensor_id;sensor_type;location;lat;lon;timestamp;P1;durP1;ratioP1;P2;durP2;ratioP2
7029;SDS011;3556;53.500;10.176;2023-06-22T00:00:56;3.77;;;3.43;;
7029;SDS011;3556;53.500;10.176;2023-06-22T00:03:23;4.07;;;3.60;;
7029;SDS011;3556;53.500;10.176;2023-06-22T00:05:49;3.97;;;3.57;;
7029;SDS011;3556;53.500;10.176;2023-06-22T00:08:16;3.90;;;3.60;;
7029;SDS011;3556;53.500;10.176;2023-06-22T00:10:42;3.97;;;3.57;;
7029;SDS011;3556;53.500;10.176;2023-06-22T00:13:08;4.03;;;3.73;;
7029;SDS011;3556;53.500;10.176;2023-06-22T00:15:36;7.00;;;3.83;;
7029;SDS011;3556;53.500;10.176;2023-06-22T00:18:02;3.93;;;3.63;;
7029;SDS011;3556;53.500;10.176;2023-06-22T00:20:28;4.90;;;4.20;;
7029;SDS011;3556;53.500;10.176;2023-06-22T00:22:55;5.93;;;4.00;;
7029;SDS011;3556;53.500;10.176;2023-06-22T00:25:21;4.07;;;3.77;;
7029;SDS011;3556;53.500;10.176;2023-06-22T00:27:47;4.87;;;4.40;;
7029;SDS011;3556;53.500;10.176;2023-06-22T00:30:14;5.77;;;4.23;;
7029;SDS011;3556;53.500;10.176;2023-06-22T00:32:41;4.00;;;3.43;;
7029;SDS011;3556;53.500;10.176;2023-06-22T00:35:07;4.47;;;4.07;;
7029;SDS011;3556;53.500;10.176;2023-06-22T00:37:34;4.40;;;4.10;;
7029;SDS011;3556;53.500;10.176;2023-06-22T00:40:00;4.00;;;3.33;;
7029;SDS011;3556;53.500;10.176;2023-06-22T00:42:26;4.23;;;3.77;;
7029;SDS011;3556;53.500;10.176;2023-06-22T00:44:52;5.40;;;4.10;;
7029;SDS011;3556;53.500;10.176;2023-06-22T00:47:18;4.77;;;3.53;;
7029;SDS011;3556;53.500;10.176;2023-06-22T00:49:44;4.80;;;4.00;;
7029;SDS011;3556;53.500;10.176;2023-06-22T00:52:11;4.10;;;3.70;;
7029;SDS011;3556;53.500;10.176;2023-06-22T00:54:47;4.93;;;3.70;;
7029;SDS011;3556;53.500;10.176;2023-06-22T00:57:14;4.60;;;4.20;;
7029;SDS011;3556;53.500;10.176;2023-06-22T00:59:43;4.57;;;4.17;;
7029;SDS011;3556;53.500;10.176;2023-06-22T01:02:10;5.80;;;4.20;;
7029;SDS011;3556;53.500;10.176;2023-06-22T01:04:36;3.53;;;3.33;;
7029;SDS011;3556;53.500;10.176;2023-06-22T01:07:08;4.93;;;4.47;;
7029;SDS011;3556;53.500;10.176;2023-06-22T01:09:59;4.30;;;3.90;;
7029;SDS011;3556;53.500;10.176;2023-06-22T01:12:30;3.87;;;3.57;;
7029;SDS011;3556;53.500;10.176;2023-06-22T01:15:18;4.20;;;3.90;;
7029;SDS011;3556;53.500;10.176;2023-06-22T01:17:49;4.80;;;4.20;;
7029;SDS011;3556;53.500;10.176;2023-06-22T01:20:17;7.83;;;4.03;;
7029;SDS011;3556;53.500;10.176;2023-06-22T01:25:49;5.17;;;4.40;;
7029;SDS011;3556;53.500;10.176;2023-06-22T01:31:13;4.10;;;3.80;;
7029;SDS011;3556;53.500;10.176;2023-06-22T01:33:42;4.30;;;4.00;;
7029;SDS011;3556;53.500;10.176;2023-06-22T01:36:11;4.47;;;4.07;;
7029;SDS011;3556;53.500;10.176;2023-06-22T01:38:38;4.20;;;3.57;;
7029;SDS011;3556;53.500;10.176;2023-06-22T01:41:04;5.33;;;4.03;;
7029;SDS011;3556;53.500;10.176;2023-06-22T01:43:30;3.77;;;3.50;;
7029;SDS011;3556;53.500;10.176;2023-06-22T01:45:57;4.97;;;4.57;;
7029;SDS011;3556;53.500;10.176;2023-06-22T01:48:27;6.97;;;4.83;;
7029;SDS011;3556;53.500;10.176;2023-06-22T01:50:53;4.63;;;4.23;;
7029;SDS011;3556;53.500;10.176;2023-06-22T01:53:20;4.83;;;4.33;;
7029;SDS011;3556;53.500;10.176;2023-06-22T01:55:47;4.20;;;3.80;;
7029;SDS011;3556;53.500;10.176;2023-06-22T01:58:13;4.80;;;4.30;;
7029;SDS011;3556;53.500;10.176;2023-06-22T02:00:39;6.43;;;4.37;;
7029;SDS011;3556;53.500;10.176;2023-06-22T02:03:10;4.73;;;4.37;;
7029;SDS011;3556;53.500;10.176;2023-06-22T02:05:45;5.23;;;4.40;;
7029;SDS011;3556;53.500;10.176;2023-06-22T02:08:22;4.57;;;4.10;;
7029;SDS011;3556;53.500;10.176;2023-06-22T02:10:50;4.53;;;4.13;;
7029;SDS011;3556;53.500;10.176;2023-06-22T02:13:19;4.23;;;3.93;;
7029;SDS011;3556;53.500;10.176;2023-06-22T02:15:45;10.13;;;4.30;;
7029;SDS011;3556;53.500;10.176;2023-06-22T02:18:11;4.20;;;3.90;;
7029;SDS011;3556;53.500;10.176;2023-06-22T02:20:38;4.83;;;4.33;;
7029;SDS011;3556;53.500;10.176;2023-06-22T02:23:05;9.13;;;4.70;;
7029;SDS011;3556;53.500;10.176;2023-06-22T02:25:31;5.67;;;4.53;;
7029;SDS011;3556;53.500;10.176;2023-06-22T02:27:57;9.30;;;4.50;;
7029;SDS011;3556;53.500;10.176;2023-06-22T02:30:23;6.43;;;4.53;;
7029;SDS011;3556;53.500;10.176;2023-06-22T02:32:49;5.33;;;4.47;;
7029;SDS011;3556;53.500;10.176;2023-06-22T02:35:23;5.10;;;4.10;;
7029;SDS011;3556;53.500;10.176;2023-06-22T02:37:52;4.53;;;4.17;;
7029;SDS011;3556;53.500;10.176;2023-06-22T02:40:17;4.50;;;4.13;;
7029;SDS011;3556;53.500;10.176;2023-06-22T02:42:43;4.60;;;4.30;;
7029;SDS011;3556;53.500;10.176;2023-06-22T02:45:09;4.77;;;4.37;;
7029;SDS011;3556;53.500;10.176;2023-06-22T02:47:35;5.80;;;4.00;;
7029;SDS011;3556;53.500;10.176;2023-06-22T02:50:00;5.43;;;4.30;;
7029;SDS011;3556;53.500;10.176;2023-06-22T02:52:26;9.33;;;4.93;;
7029;SDS011;3556;53.500;10.176;2023-06-22T02:54:52;5.20;;;4.53;;
7029;SDS011;3556;53.500;10.176;2023-06-22T02:57:17;4.73;;;4.33;;
7029;SDS011;3556;53.500;10.176;2023-06-22T02:59:43;4.63;;;4.20;;
7029;SDS011;3556;53.500;10.176;2023-06-22T03:02:09;4.50;;;4.20;;
7029;SDS011;3556;53.500;10.176;2023-06-22T03:04:35;4.30;;;3.90;;
7029;SDS011;3556;53.500;10.176;2023-06-22T03:07:01;5.73;;;4.40;;
7029;SDS011;3556;53.500;10.176;2023-06-22T03:09:27;5.33;;;4.83;;
7029;SDS011;3556;53.500;10.176;2023-06-22T03:11:53;5.63;;;4.80;;
7029;SDS011;3556;53.500;10.176;2023-06-22T03:14:19;7.47;;;5.40;;
7029;SDS011;3556;53.500;10.176;2023-06-22T03:16:45;5.60;;;4.50;;
7029;SDS011;3556;53.500;10.176;2023-06-22T03:19:11;5.30;;;4.80;;
7029;SDS011;3556;53.500;10.176;2023-06-22T03:21:37;6.53;;;4.90;;
7029;SDS011;3556;53.500;10.176;2023-06-22T03:24:06;5.63;;;5.07;;
7029;SDS011;3556;53.500;10.176;2023-06-22T03:26:32;4.97;;;4.57;;
7029;SDS011;3556;53.500;10.176;2023-06-22T03:28:58;4.80;;;4.50;;
7029;SDS011;3556;53.500;10.176;2023-06-22T03:31:23;6.07;;;5.47;;
7029;SDS011;3556;53.500;10.176;2023-06-22T03:33:49;5.20;;;4.70;;
7029;SDS011;3556;53.500;10.176;2023-06-22T03:36:16;6.30;;;4.40;;
7029;SDS011;3556;53.500;10.176;2023-06-22T03:38:45;5.17;;;4.70;;
7029;SDS011;3556;53.500;10.176;2023-06-22T03:41:12;5.50;;;5.00;;
7029;SDS011;3556;53.500;10.176;2023-06-22T03:43:38;5.40;;;4.90;;
7029;SDS011;3556;53.500;10.176;2023-06-22T03:46:03;4.83;;;4.20;;
7029;SDS011;3556;53.500;10.176;2023-06-22T03:48:29;5.30;;;4.80;;
7029;SDS011;3556;53.500;10.176;2023-06-22T03:50:55;9.10;;;5.60;;
7029;SDS011;3556;53.500;10.176;2023-06-22T03:53:20;7.07;;;6.00;;
7029;SDS011;3556;53.500;10.176;2023-06-22T03:55:50;6.57;;;5.83;;
7029;SDS011;3556;53.500;10.176;2023-06-22T03:58:17;9.03;;;5.40;;
7029;SDS011;3556;53.500;10.176;2023-06-22T04:00:44;6.10;;;5.60;;
7029;SDS011;3556;53.500;10.176;2023-06-22T04:03:11;5.87;;;5.33;;
7029;SDS011;3556;53.500;10.176;2023-06-22T04:05:38;6.30;;;5.70;;
7029;SDS011;3556;53.500;10.176;2023-06-22T04:08:04;8.90;;;5.60;;
7029;SDS011;3556;53.500;10.176;2023-06-22T04:10:30;7.37;;;6.00;;
7029;SDS011;3556;53.500;10.176;2023-06-22T04:12:56;6.00;;;5.40;;
7029;SDS011;3556;53.500;10.176;2023-06-22T04:15:21;5.47;;;4.97;;
7029;SDS011;3556;53.500;10.176;2023-06-22T04:17:47;6.97;;;5.90;;
7029;SDS011;3556;53.500;10.176;2023-06-22T04:20:13;6.80;;;6.10;;
7029;SDS011;3556;53.500;10.176;2023-06-22T04:22:39;7.17;;;6.47;;
7029;SDS011;3556;53.500;10.176;2023-06-22T04:25:05;10.97;;;7.10;;
7029;SDS011;3556;53.500;10.176;2023-06-22T04:27:32;10.97;;;7.40;;
7029;SDS011;3556;53.500;10.176;2023-06-22T04:30:05;10.27;;;6.97;;
7029;SDS011;3556;53.500;10.176;2023-06-22T04:32:47;7.30;;;6.60;;
7029;SDS011;3556;53.500;10.176;2023-06-22T04:35:23;6.83;;;6.20;;
7029;SDS011;3556;53.500;10.176;2023-06-22T04:37:49;10.73;;;6.70;;
7029;SDS011;3556;53.500;10.176;2023-06-22T04:40:15;7.27;;;5.90;;
7029;SDS011;3556;53.500;10.176;2023-06-22T04:42:40;8.00;;;5.70;;
7029;SDS011;3556;53.500;10.176;2023-06-22T04:45:17;9.20;;;6.10;;
7029;SDS011;3556;53.500;10.176;2023-06-22T04:47:42;7.93;;;6.53;;
7029;SDS011;3556;53.500;10.176;2023-06-22T04:50:10;8.53;;;7.23;;
7029;SDS011;3556;53.500;10.176;2023-06-22T04:52:36;7.23;;;6.63;;
7029;SDS011;3556;53.500;10.176;2023-06-22T04:55:02;9.60;;;7.20;;
7029;SDS011;3556;53.500;10.176;2023-06-22T04:57:28;8.90;;;7.07;;
7029;SDS011;3556;53.500;10.176;2023-06-22T04:59:58;15.07;;;7.23;;
7029;SDS011;3556;53.500;10.176;2023-06-22T05:02:36;9.10;;;8.13;;
7029;SDS011;3556;53.500;10.176;2023-06-22T05:05:02;8.07;;;7.13;;
7029;SDS011;3556;53.500;10.176;2023-06-22T05:07:32;8.70;;;7.10;;
7029;SDS011;3556;53.500;10.176;2023-06-22T05:09:58;9.70;;;7.53;;
7029;SDS011;3556;53.500;10.176;2023-06-22T05:12:24;8.63;;;7.67;;
7029;SDS011;3556;53.500;10.176;2023-06-22T05:14:50;12.77;;;8.67;;
7029;SDS011;3556;53.500;10.176;2023-06-22T05:17:15;9.27;;;7.67;;
7029;SDS011;3556;53.500;10.176;2023-06-22T05:19:44;10.40;;;6.97;;
7029;SDS011;3556;53.500;10.176;2023-06-22T05:22:14;8.40;;;7.50;;
7029;SDS011;3556;53.500;10.176;2023-06-22T05:24:40;14.33;;;6.90;;
7029;SDS011;3556;53.500;10.176;2023-06-22T05:27:06;9.17;;;7.30;;
7029;SDS011;3556;53.500;10.176;2023-06-22T05:29:32;6.67;;;5.97;;
7029;SDS011;3556;53.500;10.176;2023-06-22T05:31:57;9.40;;;6.67;;
7029;SDS011;3556;53.500;10.176;2023-06-22T05:34:23;9.60;;;6.43;;
7029;SDS011;3556;53.500;10.176;2023-06-22T05:36:48;6.53;;;5.93;;
7029;SDS011;3556;53.500;10.176;2023-06-22T05:39:14;9.13;;;6.00;;
7029;SDS011;3556;53.500;10.176;2023-06-22T05:41:40;7.03;;;5.93;;
7029;SDS011;3556;53.500;10.176;2023-06-22T05:44:06;9.90;;;5.13;;
7029;SDS011;3556;53.500;10.176;2023-06-22T05:46:31;5.07;;;4.67;;
7029;SDS011;3556;53.500;10.176;2023-06-22T05:48:57;8.13;;;5.10;;
7029;SDS011;3556;53.500;10.176;2023-06-22T05:51:23;5.50;;;5.00;;
7029;SDS011;3556;53.500;10.176;2023-06-22T05:53:48;4.60;;;4.10;;
7029;SDS011;3556;53.500;10.176;2023-06-22T05:56:17;4.90;;;4.47;;
7029;SDS011;3556;53.500;10.176;2023-06-22T05:58:43;4.37;;;3.97;;
7029;SDS011;3556;53.500;10.176;2023-06-22T06:01:11;7.30;;;4.30;;
7029;SDS011;3556;53.500;10.176;2023-06-22T06:03:36;4.70;;;4.10;;
7029;SDS011;3556;53.500;10.176;2023-06-22T06:06:06;4.30;;;3.90;;
7029;SDS011;3556;53.500;10.176;2023-06-22T06:08:32;7.23;;;4.20;;
7029;SDS011;3556;53.500;10.176;2023-06-22T06:10:57;7.43;;;4.30;;
7029;SDS011;3556;53.500;10.176;2023-06-22T06:13:23;6.93;;;4.47;;
7029;SDS011;3556;53.500;10.176;2023-06-22T06:15:49;6.50;;;4.60;;
7029;SDS011;3556;53.500;10.176;2023-06-22T06:18:16;3.87;;;3.50;;
7029;SDS011;3556;53.500;10.176;2023-06-22T06:20:42;6.27;;;4.27;;
7029;SDS011;3556;53.500;10.176;2023-06-22T06:23:08;5.43;;;3.47;;
7029;SDS011;3556;53.500;10.176;2023-06-22T06:25:33;5.83;;;3.93;;
7029;SDS011;3556;53.500;10.176;2023-06-22T06:28:00;5.93;;;3.93;;
7029;SDS011;3556;53.500;10.176;2023-06-22T06:30:26;7.17;;;3.80;;
7029;SDS011;3556;53.500;10.176;2023-06-22T06:32:51;6.70;;;4.83;;
7029;SDS011;3556;53.500;10.176;2023-06-22T06:35:17;4.27;;;3.60;;
7029;SDS011;3556;53.500;10.176;2023-06-22T06:37:43;5.93;;;4.00;;
7029;SDS011;3556;53.500;10.176;2023-06-22T06:40:10;4.20;;;3.80;;
7029;SDS011;3556;53.500;10.176;2023-06-22T06:42:38;3.70;;;3.27;;
7029;SDS011;3556;53.500;10.176;2023-06-22T06:45:06;3.53;;;3.33;;
7029;SDS011;3556;53.500;10.176;2023-06-22T06:47:33;4.13;;;3.80;;
7029;SDS011;3556;53.500;10.176;2023-06-22T06:49:59;9.10;;;4.10;;
7029;SDS011;3556;53.500;10.176;2023-06-22T06:52:24;5.43;;;4.40;;
7029;SDS011;3556;53.500;10.176;2023-06-22T06:54:50;4.20;;;3.53;;
7029;SDS011;3556;53.500;10.176;2023-06-22T06:57:17;4.43;;;3.70;;
7029;SDS011;3556;53.500;10.176;2023-06-22T06:59:43;4.60;;;4.20;;
7029;SDS011;3556;53.500;10.176;2023-06-22T07:02:09;4.17;;;3.70;;
7029;SDS011;3556;53.500;10.176;2023-06-22T07:04:34;3.87;;;3.50;;
7029;SDS011;3556;53.500;10.176;2023-06-22T07:07:01;3.77;;;3.47;;
7029;SDS011;3556;53.500;10.176;2023-06-22T07:09:27;3.80;;;3.50;;
7029;SDS011;3556;53.500;10.176;2023-06-22T07:11:53;4.77;;;3.97;;
7029;SDS011;3556;53.500;10.176;2023-06-22T07:14:18;4.43;;;3.60;;
7029;SDS011;3556;53.500;10.176;2023-06-22T07:16:44;3.93;;;3.50;;
7029;SDS011;3556;53.500;10.176;2023-06-22T07:19:11;4.63;;;3.63;;
7029;SDS011;3556;53.500;10.176;2023-06-22T07:21:37;3.37;;;3.07;;
7029;SDS011;3556;53.500;10.176;2023-06-22T07:24:04;3.30;;;3.10;;
7029;SDS011;3556;53.500;10.176;2023-06-22T07:26:31;3.60;;;3.30;;
7029;SDS011;3556;53.500;10.176;2023-06-22T07:28:57;3.57;;;3.07;;
7029;SDS011;3556;53.500;10.176;2023-06-22T07:31:24;3.40;;;3.03;;
7029;SDS011;3556;53.500;10.176;2023-06-22T07:33:50;3.23;;;3.03;;
7029;SDS011;3556;53.500;10.176;2023-06-22T07:36:16;3.47;;;3.17;;
7029;SDS011;3556;53.500;10.176;2023-06-22T07:38:42;5.50;;;3.47;;
7029;SDS011;3556;53.500;10.176;2023-06-22T07:41:08;3.70;;;3.40;;
7029;SDS011;3556;53.500;10.176;2023-06-22T07:43:33;3.47;;;3.27;;
7029;SDS011;3556;53.500;10.176;2023-06-22T07:46:02;3.03;;;2.83;;
7029;SDS011;3556;53.500;10.176;2023-06-22T07:48:28;3.60;;;3.30;;
7029;SDS011;3556;53.500;10.176;2023-06-22T07:50:54;3.50;;;3.20;;
7029;SDS011;3556;53.500;10.176;2023-06-22T07:53:20;4.07;;;3.00;;
7029;SDS011;3556;53.500;10.176;2023-06-22T07:55:47;4.00;;;3.70;;
7029;SDS011;3556;53.500;10.176;2023-06-22T07:58:12;4.40;;;3.80;;
7029;SDS011;3556;53.500;10.176;2023-06-22T08:00:38;2.90;;;2.70;;
7029;SDS011;3556;53.500;10.176;2023-06-22T08:03:04;5.37;;;3.30;;
7029;SDS011;3556;53.500;10.176;2023-06-22T08:05:30;4.20;;;2.70;;
7029;SDS011;3556;53.500;10.176;2023-06-22T08:07:56;4.10;;;3.30;;
7029;SDS011;3556;53.500;10.176;2023-06-22T08:10:21;3.73;;;3.13;;
7029;SDS011;3556;53.500;10.176;2023-06-22T08:12:47;5.00;;;3.47;;
7029;SDS011;3556;53.500;10.176;2023-06-22T08:15:13;3.53;;;3.23;;
7029;SDS011;3556;53.500;10.176;2023-06-22T08:17:38;3.50;;;3.20;;
7029;SDS011;3556;53.500;10.176;2023-06-22T08:20:05;4.40;;;2.90;;
7029;SDS011;3556;53.500;10.176;2023-06-22T08:22:35;3.83;;;3.37;;
7029;SDS011;3556;53.500;10.176;2023-06-22T08:25:02;3.17;;;2.97;;
7029;SDS011;3556;53.500;10.176;2023-06-22T08:27:29;3.13;;;2.93;;
7029;SDS011;3556;53.500;10.176;2023-06-22T08:29:57;3.07;;;2.80;;
7029;SDS011;3556;53.500;10.176;2023-06-22T08:32:24;4.13;;;3.20;;
7029;SDS011;3556;53.500;10.176;2023-06-22T08:34:51;2.70;;;2.60;;
7029;SDS011;3556;53.500;10.176;2023-06-22T08:37:21;4.17;;;2.70;;
7029;SDS011;3556;53.500;10.176;2023-06-22T08:39:49;3.80;;;2.90;;
7029;SDS011;3556;53.500;10.176;2023-06-22T08:42:15;3.90;;;2.90;;
7029;SDS011;3556;53.500;10.176;2023-06-22T08:44:41;7.43;;;2.43;;
7029;SDS011;3556;53.500;10.176;2023-06-22T08:47:07;3.70;;;2.60;;
7029;SDS011;3556;53.500;10.176;2023-06-22T08:49:32;2.53;;;2.30;;
7029;SDS011;3556;53.500;10.176;2023-06-22T08:51:58;2.50;;;2.30;;
7029;SDS011;3556;53.500;10.176;2023-06-22T08:54:23;2.40;;;2.30;;
7029;SDS011;3556;53.500;10.176;2023-06-22T08:56:49;2.83;;;2.63;;
7029;SDS011;3556;53.500;10.176;2023-06-22T08:59:14;5.53;;;2.97;;
7029;SDS011;3556;53.500;10.176;2023-06-22T09:01:40;2.63;;;2.43;;
7029;SDS011;3556;53.500;10.176;2023-06-22T09:04:06;3.33;;;3.03;;
7029;SDS011;3556;53.500;10.176;2023-06-22T09:06:34;5.03;;;2.37;;
7029;SDS011;3556;53.500;10.176;2023-06-22T09:08:59;3.93;;;2.53;;
7029;SDS011;3556;53.500;10.176;2023-06-22T09:11:25;5.03;;;2.77;;
7029;SDS011;3556;53.500;10.176;2023-06-22T09:13:51;3.70;;;2.77;;
7029;SDS011;3556;53.500;10.176;2023-06-22T09:16:18;5.53;;;2.80;;
7029;SDS011;3556;53.500;10.176;2023-06-22T09:18:47;2.57;;;2.40;;
7029;SDS011;3556;53.500;10.176;2023-06-22T09:21:13;2.70;;;2.50;;
7029;SDS011;3556;53.500;10.176;2023-06-22T09:23:39;3.70;;;2.90;;
7029;SDS011;3556;53.500;10.176;2023-06-22T09:26:05;5.33;;;2.70;;
7029;SDS011;3556;53.500;10.176;2023-06-22T09:28:30;3.83;;;3.27;;
7029;SDS011;3556;53.500;10.176;2023-06-22T09:30:56;4.10;;;3.30;;
7029;SDS011;3556;53.500;10.176;2023-06-22T09:33:23;5.07;;;3.20;;
7029;SDS011;3556;53.500;10.176;2023-06-22T09:35:50;9.13;;;3.90;;
7029;SDS011;3556;53.500;10.176;2023-06-22T09:38:16;3.37;;;3.10;;
7029;SDS011;3556;53.500;10.176;2023-06-22T09:40:42;3.00;;;2.63;;
7029;SDS011;3556;53.500;10.176;2023-06-22T09:43:07;3.00;;;2.80;;
7029;SDS011;3556;53.500;10.176;2023-06-22T09:45:33;3.40;;;3.10;;
7029;SDS011;3556;53.500;10.176;2023-06-22T09:47:59;3.47;;;3.13;;
7029;SDS011;3556;53.500;10.176;2023-06-22T09:50:24;3.67;;;3.37;;
7029;SDS011;3556;53.500;10.176;2023-06-22T09:52:50;3.47;;;3.20;;
7029;SDS011;3556;53.500;10.176;2023-06-22T09:55:19;6.57;;;2.97;;
7029;SDS011;3556;53.500;10.176;2023-06-22T09:57:45;3.53;;;2.80;;
7029;SDS011;3556;53.500;10.176;2023-06-22T10:00:11;2.70;;;2.53;;
7029;SDS011;3556;53.500;10.176;2023-06-22T10:02:39;3.87;;;3.50;;
7029;SDS011;3556;53.500;10.176;2023-06-22T10:05:05;3.80;;;3.10;;
7029;SDS011;3556;53.500;10.176;2023-06-22T10:07:31;4.00;;;3.60;;
7029;SDS011;3556;53.500;10.176;2023-06-22T10:09:56;3.87;;;3.57;;
7029;SDS011;3556;53.500;10.176;2023-06-22T10:12:22;3.87;;;3.57;;
7029;SDS011;3556;53.500;10.176;2023-06-22T10:14:47;3.20;;;3.00;;
7029;SDS011;3556;53.500;10.176;2023-06-22T10:17:13;9.47;;;3.50;;
7029;SDS011;3556;53.500;10.176;2023-06-22T10:19:38;4.07;;;3.67;;
7029;SDS011;3556;53.500;10.176;2023-06-22T10:22:06;5.13;;;3.50;;
7029;SDS011;3556;53.500;10.176;2023-06-22T10:24:32;3.70;;;3.43;;
7029;SDS011;3556;53.500;10.176;2023-06-22T10:26:57;4.37;;;3.97;;
7029;SDS011;3556;53.500;10.176;2023-06-22T10:29:23;4.17;;;3.30;;
7029;SDS011;3556;53.500;10.176;2023-06-22T10:31:49;4.03;;;3.73;;
7029;SDS011;3556;53.500;10.176;2023-06-22T10:34:14;3.80;;;3.50;;
7029;SDS011;3556;53.500;10.176;2023-06-22T10:36:40;6.80;;;3.67;;
7029;SDS011;3556;53.500;10.176;2023-06-22T10:39:06;4.43;;;3.57;;
7029;SDS011;3556;53.500;10.176;2023-06-22T10:41:31;3.50;;;3.27;;
7029;SDS011;3556;53.500;10.176;2023-06-22T10:43:57;6.30;;;3.93;;
7029;SDS011;3556;53.500;10.176;2023-06-22T10:46:26;5.20;;;3.70;;
7029;SDS011;3556;53.500;10.176;2023-06-22T10:48:52;5.80;;;3.90;;
7029;SDS011;3556;53.500;10.176;2023-06-22T10:51:20;4.23;;;3.60;;
7029;SDS011;3556;53.500;10.176;2023-06-22T10:53:45;4.00;;;3.80;;
7029;SDS011;3556;53.500;10.176;2023-06-22T10:56:11;7.20;;;3.80;;
7029;SDS011;3556;53.500;10.176;2023-06-22T10:58:37;4.50;;;4.10;;
7029;SDS011;3556;53.500;10.176;2023-06-22T11:01:02;9.20;;;3.73;;
7029;SDS011;3556;53.500;10.176;2023-06-22T11:03:28;4.17;;;3.83;;
7029;SDS011;3556;53.500;10.176;2023-06-22T11:05:54;8.33;;;4.13;;
7029;SDS011;3556;53.500;10.176;2023-06-22T11:08:19;4.53;;;4.20;;
7029;SDS011;3556;53.500;10.176;2023-06-22T11:10:45;6.60;;;4.33;;
7029;SDS011;3556;53.500;10.176;2023-06-22T11:13:10;10.73;;;4.37;;
7029;SDS011;3556;53.500;10.176;2023-06-22T11:15:36;5.03;;;4.57;;
7029;SDS011;3556;53.500;10.176;2023-06-22T11:18:02;8.30;;;3.90;;
7029;SDS011;3556;53.500;10.176;2023-06-22T11:20:30;7.00;;;4.37;;
7029;SDS011;3556;53.500;10.176;2023-06-22T11:22:55;4.27;;;3.87;;
7029;SDS011;3556;53.500;10.176;2023-06-22T11:25:21;5.60;;;5.20;;
7029;SDS011;3556;53.500;10.176;2023-06-22T11:27:46;6.53;;;5.10;;
7029;SDS011;3556;53.500;10.176;2023-06-22T11:30:12;5.93;;;5.43;;
7029;SDS011;3556;53.500;10.176;2023-06-22T11:32:38;6.80;;;5.20;;
7029;SDS011;3556;53.500;10.176;2023-06-22T11:35:03;5.63;;;5.10;;
7029;SDS011;3556;53.500;10.176;2023-06-22T11:37:29;5.20;;;4.80;;
7029;SDS011;3556;53.500;10.176;2023-06-22T11:39:55;5.53;;;5.13;;
7029;SDS011;3556;53.500;10.176;2023-06-22T11:42:20;5.53;;;5.13;;
7029;SDS011;3556;53.500;10.176;2023-06-22T11:44:48;4.47;;;4.17;;
7029;SDS011;3556;53.500;10.176;2023-06-22T11:47:14;4.93;;;4.53;;
7029;SDS011;3556;53.500;10.176;2023-06-22T11:49:40;5.50;;;4.87;;
7029;SDS011;3556;53.500;10.176;2023-06-22T11:52:06;8.63;;;5.00;;
7029;SDS011;3556;53.500;10.176;2023-06-22T11:54:32;5.43;;;5.03;;
7029;SDS011;3556;53.500;10.176;2023-06-22T11:56:57;5.23;;;4.73;;
7029;SDS011;3556;53.500;10.176;2023-06-22T11:59:23;5.50;;;5.00;;
7029;SDS011;3556;53.500;10.176;2023-06-22T12:01:48;5.67;;;5.27;;
7029;SDS011;3556;53.500;10.176;2023-06-22T12:04:16;4.60;;;4.30;;
7029;SDS011;3556;53.500;10.176;2023-06-22T12:06:42;5.10;;;4.80;;
7029;SDS011;3556;53.500;10.176;2023-06-22T12:09:08;5.23;;;4.73;;
7029;SDS011;3556;53.500;10.176;2023-06-22T12:11:35;5.80;;;4.77;;
7029;SDS011;3556;53.500;10.176;2023-06-22T12:14:00;6.33;;;5.60;;
7029;SDS011;3556;53.500;10.176;2023-06-22T12:16:27;5.40;;;4.90;;
7029;SDS011;3556;53.500;10.176;2023-06-22T12:18:53;5.90;;;5.40;;
7029;SDS011;3556;53.500;10.176;2023-06-22T12:21:19;9.50;;;5.63;;
7029;SDS011;3556;53.500;10.176;2023-06-22T12:23:45;5.67;;;5.17;;
7029;SDS011;3556;53.500;10.176;2023-06-22T12:26:11;5.87;;;5.37;;
7029;SDS011;3556;53.500;10.176;2023-06-22T12:28:36;6.97;;;6.10;;
7029;SDS011;3556;53.500;10.176;2023-06-22T12:31:02;7.30;;;6.00;;
7029;SDS011;3556;53.500;10.176;2023-06-22T12:33:27;5.90;;;5.50;;
7029;SDS011;3556;53.500;10.176;2023-06-22T12:35:55;7.67;;;5.37;;
7029;SDS011;3556;53.500;10.176;2023-06-22T12:38:21;6.10;;;5.50;;
7029;SDS011;3556;53.500;10.176;2023-06-22T12:40:47;6.43;;;5.87;;
7029;SDS011;3556;53.500;10.176;2023-06-22T12:43:14;7.40;;;5.30;;
7029;SDS011;3556;53.500;10.176;2023-06-22T12:45:40;5.63;;;5.23;;
7029;SDS011;3556;53.500;10.176;2023-06-22T12:48:05;5.57;;;5.17;;
7029;SDS011;3556;53.500;10.176;2023-06-22T12:50:31;5.20;;;4.80;;
7029;SDS011;3556;53.500;10.176;2023-06-22T12:52:57;5.53;;;5.03;;
7029;SDS011;3556;53.500;10.176;2023-06-22T12:55:23;5.40;;;5.00;;
7029;SDS011;3556;53.500;10.176;2023-06-22T12:57:48;5.67;;;5.27;;
7029;SDS011;3556;53.500;10.176;2023-06-22T13:00:14;6.13;;;5.63;;
7029;SDS011;3556;53.500;10.176;2023-06-22T13:02:40;5.50;;;4.87;;
7029;SDS011;3556;53.500;10.176;2023-06-22T13:05:06;6.87;;;5.30;;
7029;SDS011;3556;53.500;10.176;2023-06-22T13:07:31;5.30;;;4.90;;
7029;SDS011;3556;53.500;10.176;2023-06-22T13:09:57;6.20;;;5.40;;
7029;SDS011;3556;53.500;10.176;2023-06-22T13:12:23;5.40;;;5.00;;
7029;SDS011;3556;53.500;10.176;2023-06-22T13:14:48;5.53;;;5.13;;
7029;SDS011;3556;53.500;10.176;2023-06-22T13:17:14;5.70;;;5.20;;
7029;SDS011;3556;53.500;10.176;2023-06-22T13:19:40;7.27;;;5.63;;
7029;SDS011;3556;53.500;10.176;2023-06-22T13:22:09;6.83;;;5.83;;
7029;SDS011;3556;53.500;10.176;2023-06-22T13:24:57;5.37;;;4.97;;
7029;SDS011;3556;53.500;10.176;2023-06-22T13:27:24;5.73;;;5.33;;
7029;SDS011;3556;53.500;10.176;2023-06-22T13:29:50;6.23;;;5.73;;
7029;SDS011;3556;53.500;10.176;2023-06-22T13:32:16;5.80;;;5.30;;
7029;SDS011;3556;53.500;10.176;2023-06-22T13:34:42;5.77;;;5.30;;
7029;SDS011;3556;53.500;10.176;2023-06-22T13:37:08;8.60;;;5.40;;
7029;SDS011;3556;53.500;10.176;2023-06-22T13:39:33;6.80;;;6.10;;
7029;SDS011;3556;53.500;10.176;2023-06-22T13:41:59;6.17;;;5.67;;
7029;SDS011;3556;53.500;10.176;2023-06-22T13:44:25;5.07;;;4.77;;
7029;SDS011;3556;53.500;10.176;2023-06-22T13:46:53;9.20;;;5.83;;
7029;SDS011;3556;53.500;10.176;2023-06-22T13:49:22;5.80;;;5.30;;
7029;SDS011;3556;53.500;10.176;2023-06-22T13:51:48;6.80;;;6.30;;
7029;SDS011;3556;53.500;10.176;2023-06-22T13:54:14;6.40;;;5.83;;
7029;SDS011;3556;53.500;10.176;2023-06-22T13:56:40;9.00;;;6.10;;
7029;SDS011;3556;53.500;10.176;2023-06-22T13:59:05;5.90;;;5.37;;
7029;SDS011;3556;53.500;10.176;2023-06-22T14:01:35;6.27;;;5.67;;
7029;SDS011;3556;53.500;10.176;2023-06-22T14:04:01;6.40;;;5.87;;
7029;SDS011;3556;53.500;10.176;2023-06-22T14:06:27;6.23;;;5.30;;
7029;SDS011;3556;53.500;10.176;2023-06-22T14:08:54;5.93;;;5.37;;
7029;SDS011;3556;53.500;10.176;2023-06-22T14:11:19;6.50;;;5.90;;
7029;SDS011;3556;53.500;10.176;2023-06-22T14:13:45;6.10;;;5.60;;
7029;SDS011;3556;53.500;10.176;2023-06-22T14:16:11;6.63;;;5.87;;
7029;SDS011;3556;53.500;10.176;2023-06-22T14:18:37;5.33;;;4.93;;
7029;SDS011;3556;53.500;10.176;2023-06-22T14:21:02;6.60;;;5.93;;
7029;SDS011;3556;53.500;10.176;2023-06-22T14:23:28;7.00;;;5.63;;
7029;SDS011;3556;53.500;10.176;2023-06-22T14:25:54;6.80;;;5.80;;
7029;SDS011;3556;53.500;10.176;2023-06-22T14:28:19;6.03;;;5.43;;
7029;SDS011;3556;53.500;10.176;2023-06-22T14:30:45;6.00;;;5.50;;
7029;SDS011;3556;53.500;10.176;2023-06-22T14:33:11;9.83;;;5.87;;
7029;SDS011;3556;53.500;10.176;2023-06-22T14:35:37;6.10;;;5.70;;
7029;SDS011;3556;53.500;10.176;2023-06-22T14:38:03;6.53;;;5.43;;
7029;SDS011;3556;53.500;10.176;2023-06-22T14:40:28;5.80;;;5.33;;
7029;SDS011;3556;53.500;10.176;2023-06-22T14:42:54;6.13;;;5.60;;
7029;SDS011;3556;53.500;10.176;2023-06-22T14:45:21;6.40;;;5.80;;
7029;SDS011;3556;53.500;10.176;2023-06-22T14:47:47;10.83;;;5.63;;
7029;SDS011;3556;53.500;10.176;2023-06-22T14:50:13;6.10;;;5.60;;
7029;SDS011;3556;53.500;10.176;2023-06-22T14:52:39;6.03;;;5.40;;
7029;SDS011;3556;53.500;10.176;2023-06-22T14:55:05;5.97;;;5.47;;
7029;SDS011;3556;53.500;10.176;2023-06-22T14:57:31;6.67;;;6.07;;
7029;SDS011;3556;53.500;10.176;2023-06-22T14:59:56;6.03;;;5.53;;
7029;SDS011;3556;53.500;10.176;2023-06-22T15:02:22;6.87;;;6.17;;